createdAt,value
2019-06-15T00:01:01.140Z,3.23
2019-06-15T00:03:32.318Z,3.70
2019-06-15T00:06:03.359Z,3.60
2019-06-15T00:08:36.708Z,3.67
2019-06-15T00:11:08.031Z,3.30
2019-06-15T00:13:39.106Z,2.93
2019-06-15T00:16:10.161Z,3.00
2019-06-15T00:18:41.231Z,3.30
2019-06-15T00:21:12.435Z,2.90
2019-06-15T00:23:43.522Z,2.67
2019-06-15T00:26:14.562Z,2.83
2019-06-15T00:28:45.572Z,2.20
2019-06-15T00:31:16.606Z,2.60
2019-06-15T00:33:47.634Z,2.60
2019-06-15T00:36:37.737Z,3.10
2019-06-15T00:39:09.172Z,2.80
2019-06-15T00:41:40.398Z,2.97
2019-06-15T00:44:11.437Z,3.10
2019-06-15T00:46:42.682Z,3.70
2019-06-15T00:49:13.758Z,4.37
2019-06-15T00:51:44.866Z,5.20
2019-06-15T00:54:15.912Z,5.77
2019-06-15T00:56:47.012Z,5.60
2019-06-15T00:59:18.056Z,5.33
2019-06-15T01:01:49.083Z,5.33
2019-06-15T01:04:20.116Z,5.57
2019-06-15T01:06:51.136Z,4.87
2019-06-15T01:09:22.261Z,5.10
2019-06-15T01:11:53.622Z,5.03
2019-06-15T01:14:24.661Z,5.27
2019-06-15T01:16:55.693Z,5.43
2019-06-15T01:19:26.708Z,4.90
2019-06-15T01:21:57.949Z,5.03
2019-06-15T01:24:28.964Z,4.87
2019-06-15T01:27:00.011Z,4.90
2019-06-15T01:29:31.044Z,5.00
2019-06-15T01:32:02.106Z,5.17
2019-06-15T01:34:33.150Z,5.33
2019-06-15T01:37:04.319Z,4.83
2019-06-15T01:39:35.399Z,4.67
2019-06-15T01:42:06.526Z,5.83
2019-06-15T01:44:37.540Z,5.10
2019-06-15T01:47:08.550Z,5.63
2019-06-15T01:49:39.592Z,7.17
2019-06-15T01:52:10.618Z,7.50
2019-06-15T01:54:41.700Z,7.97
2019-06-15T01:57:12.810Z,8.03
2019-06-15T01:59:43.858Z,9.07
2019-06-15T02:02:14.883Z,9.00
2019-06-15T02:05:05.284Z,9.40
2019-06-15T02:07:36.315Z,10.27
2019-06-15T02:10:08.203Z,10.67
2019-06-15T02:12:39.422Z,9.77
2019-06-15T02:15:10.834Z,9.70
2019-06-15T02:17:41.854Z,9.63
2019-06-15T02:20:13.007Z,10.03
2019-06-15T02:22:44.256Z,9.80
2019-06-15T02:25:34.821Z,10.20
2019-06-15T02:27:56.122Z,8.90
2019-06-15T02:30:28.733Z,8.13
2019-06-15T02:33:00.412Z,7.33
2019-06-15T02:35:32.476Z,7.57
2019-06-15T02:38:03.515Z,6.50
2019-06-15T02:40:34.563Z,7.17
2019-06-15T02:43:05.590Z,7.97
2019-06-15T02:45:36.621Z,6.50
2019-06-15T02:48:07.692Z,6.67
2019-06-15T02:50:38.713Z,6.53
2019-06-15T02:53:09.744Z,6.53
2019-06-15T02:55:52.898Z,5.90
2019-06-15T02:58:23.928Z,6.03
2019-06-15T03:01:14.005Z,5.60
2019-06-15T03:03:45.056Z,5.10
2019-06-15T03:06:16.889Z,4.27
2019-06-15T03:08:48.001Z,4.40
2019-06-15T03:11:19.035Z,4.13
2019-06-15T03:13:50.321Z,3.87
2019-06-15T03:16:21.339Z,3.37
2019-06-15T03:18:52.370Z,3.60
2019-06-15T03:21:23.408Z,3.50
2019-06-15T03:23:54.653Z,3.50
2019-06-15T03:26:26.106Z,3.27
2019-06-15T03:28:57.122Z,3.63
2019-06-15T03:31:28.162Z,3.10
2019-06-15T03:33:59.193Z,3.27
2019-06-15T03:36:31.290Z,3.00
2019-06-15T03:39:03.774Z,2.93
2019-06-15T03:41:34.889Z,3.07
2019-06-15T03:44:05.921Z,3.30
2019-06-15T03:46:37.007Z,3.00
2019-06-15T03:49:08.017Z,2.50
2019-06-15T03:51:39.047Z,2.63
2019-06-15T03:54:10.082Z,3.07
2019-06-15T03:56:41.158Z,2.73
2019-06-15T03:59:12.182Z,2.90
2019-06-15T04:01:48.217Z,2.73
2019-06-15T04:04:19.245Z,2.93
2019-06-15T04:06:50.282Z,3.33
2019-06-15T04:09:21.323Z,3.20
2019-06-15T04:11:52.389Z,2.93
2019-06-15T04:14:23.592Z,3.20
2019-06-15T04:16:54.644Z,3.50
2019-06-15T04:19:37.800Z,3.30
2019-06-15T04:22:09.150Z,3.40
2019-06-15T04:24:40.553Z,3.00
2019-06-15T04:27:11.794Z,2.97
2019-06-15T04:30:02.049Z,3.13
2019-06-15T04:32:34.424Z,2.57
2019-06-15T04:35:05.462Z,2.80
2019-06-15T04:37:36.507Z,2.67
2019-06-15T04:40:07.647Z,2.97
2019-06-15T04:42:38.713Z,2.90
2019-06-15T04:45:21.571Z,2.60
2019-06-15T04:47:52.610Z,3.00
2019-06-15T04:50:23.642Z,2.70
2019-06-15T04:52:54.718Z,2.77
2019-06-15T04:55:25.803Z,3.17
2019-06-15T04:57:56.849Z,2.50
2019-06-15T05:00:27.883Z,2.43
2019-06-15T05:02:58.903Z,2.13
2019-06-15T05:05:30.031Z,2.80
2019-06-15T05:08:01.129Z,2.40
2019-06-15T05:10:44.133Z,2.40
2019-06-15T05:13:15.255Z,2.67
2019-06-15T05:15:46.513Z,2.50
2019-06-15T05:18:17.563Z,2.90
2019-06-15T05:20:48.639Z,2.43
2019-06-15T05:23:19.766Z,2.50
2019-06-15T05:25:50.993Z,2.80
2019-06-15T05:28:22.017Z,2.33
2019-06-15T05:30:53.145Z,2.40
2019-06-15T05:33:24.221Z,2.50
2019-06-15T05:35:55.234Z,3.07
2019-06-15T05:38:26.324Z,2.40
2019-06-15T05:40:57.338Z,2.63
2019-06-15T05:43:28.439Z,2.50
2019-06-15T05:45:59.478Z,2.60
2019-06-15T05:48:30.539Z,2.40
2019-06-15T05:51:01.562Z,2.67
2019-06-15T05:53:32.691Z,2.57
2019-06-15T05:56:04.848Z,2.50
2019-06-15T05:58:35.862Z,2.77
2019-06-15T06:01:07.163Z,2.20
2019-06-15T06:03:38.175Z,2.17
2019-06-15T06:06:09.195Z,2.03
2019-06-15T06:08:41.499Z,1.70
2019-06-15T06:11:12.523Z,1.63
2019-06-15T06:13:43.534Z,1.60
2019-06-15T06:16:14.931Z,1.67
2019-06-15T06:18:45.950Z,1.77
2019-06-15T06:21:16.959Z,1.33
2019-06-15T06:23:48.016Z,1.27
2019-06-15T06:26:19.330Z,1.20
2019-06-15T06:28:57.147Z,1.40
2019-06-15T06:31:23.097Z,1.40
2019-06-15T06:33:54.112Z,1.30
2019-06-15T06:36:25.141Z,1.20
2019-06-15T06:38:56.286Z,1.17
2019-06-15T06:41:27.311Z,1.40
2019-06-15T06:43:58.328Z,1.30
2019-06-15T06:46:29.383Z,1.30
2019-06-15T06:49:00.420Z,2.00
2019-06-15T06:51:31.439Z,1.77
2019-06-15T06:54:02.538Z,1.80
2019-06-15T06:56:33.558Z,2.00
2019-06-15T06:59:04.665Z,2.07
2019-06-15T07:01:35.676Z,2.13
2019-06-15T07:04:06.737Z,2.30
2019-06-15T07:06:37.825Z,2.30
2019-06-15T07:09:08.883Z,2.20
2019-06-15T07:11:39.915Z,2.47
2019-06-15T07:14:10.953Z,2.20
2019-06-15T07:16:42.099Z,2.17
2019-06-15T07:19:13.120Z,2.13
2019-06-15T07:21:44.167Z,2.43
2019-06-15T07:24:15.299Z,1.87
2019-06-15T07:26:46.525Z,2.10
2019-06-15T07:29:17.595Z,1.70
2019-06-15T07:31:48.648Z,1.80
2019-06-15T07:34:19.641Z,1.80
2019-06-15T07:36:50.683Z,1.73
2019-06-15T07:39:21.787Z,1.73
2019-06-15T07:41:52.807Z,1.97
2019-06-15T07:44:23.829Z,1.70
2019-06-15T07:46:54.856Z,1.80
2019-06-15T07:49:25.955Z,1.50
2019-06-15T07:51:57.045Z,1.33
2019-06-15T07:54:28.117Z,1.50
2019-06-15T07:56:59.123Z,1.30
2019-06-15T07:59:30.209Z,1.50
2019-06-15T08:02:01.226Z,1.60
2019-06-15T08:04:32.283Z,1.30
2019-06-15T08:07:03.376Z,1.53
2019-06-15T08:09:34.507Z,1.10
2019-06-15T08:12:05.525Z,1.37
2019-06-15T08:14:36.659Z,1.20
2019-06-15T08:17:07.917Z,1.30
2019-06-15T08:19:38.945Z,1.43
2019-06-15T08:22:21.831Z,1.20
2019-06-15T08:24:52.860Z,1.50
2019-06-15T08:27:23.997Z,1.40
2019-06-15T08:29:55.031Z,1.33
2019-06-15T08:32:26.064Z,1.50
2019-06-15T08:34:57.117Z,1.70
2019-06-15T08:37:28.111Z,1.20
2019-06-15T08:39:59.211Z,1.20
2019-06-15T08:42:30.237Z,1.67
2019-06-15T08:45:01.332Z,4.33
2019-06-15T08:47:32.422Z,1.40
2019-06-15T08:50:03.559Z,1.27
2019-06-15T08:52:34.623Z,1.27
2019-06-15T08:55:06.067Z,1.17
2019-06-15T08:57:40.313Z,1.20
2019-06-15T09:00:11.529Z,1.10
2019-06-15T09:02:42.570Z,1.37
2019-06-15T09:05:32.647Z,1.60
2019-06-15T09:08:03.664Z,1.40
2019-06-15T09:10:54.953Z,1.80
2019-06-15T09:13:37.120Z,1.53
2019-06-15T09:16:08.245Z,1.50
2019-06-15T09:18:39.502Z,1.80
2019-06-15T09:21:10.622Z,1.60
2019-06-15T09:23:41.651Z,1.37
2019-06-15T09:26:12.667Z,1.30
2019-06-15T09:28:43.827Z,1.37
2019-06-15T09:31:14.878Z,1.57
2019-06-15T09:33:45.895Z,1.23
2019-06-15T09:36:16.924Z,1.50
2019-06-15T09:38:47.955Z,1.30
2019-06-15T09:41:19.009Z,1.10
2019-06-15T09:43:50.003Z,1.23
2019-06-15T09:46:21.062Z,1.10
2019-06-15T09:48:52.088Z,1.10
2019-06-15T09:51:23.167Z,1.10
2019-06-15T09:53:54.271Z,1.10
2019-06-15T09:56:25.365Z,1.30
2019-06-15T09:58:56.842Z,1.20
2019-06-15T10:01:27.905Z,1.30
2019-06-15T10:03:58.909Z,1.30
2019-06-15T10:06:30.004Z,1.20
2019-06-15T10:09:01.003Z,1.10
2019-06-15T10:11:33.621Z,1.27
2019-06-15T10:14:04.673Z,1.27
2019-06-15T10:16:35.729Z,1.20
2019-06-15T10:19:07.073Z,1.20
2019-06-15T10:21:38.104Z,1.57
2019-06-15T10:24:09.239Z,1.40
2019-06-15T10:26:40.294Z,1.30
2019-06-15T10:29:11.504Z,1.20
2019-06-15T10:31:42.575Z,1.40
2019-06-15T10:34:13.637Z,1.30
2019-06-15T10:36:44.695Z,1.43
2019-06-15T10:39:15.719Z,1.40
2019-06-15T10:41:46.771Z,1.40
2019-06-15T10:44:17.788Z,1.20
2019-06-15T10:46:48.861Z,1.50
2019-06-15T10:49:20.387Z,1.60
2019-06-15T10:51:51.511Z,1.63
2019-06-15T10:54:22.572Z,1.50
2019-06-15T10:56:53.637Z,1.60
2019-06-15T10:59:24.671Z,1.70
2019-06-15T11:01:56.129Z,1.70
2019-06-15T11:04:27.196Z,1.67
2019-06-15T11:06:58.675Z,1.90
2019-06-15T11:09:29.697Z,1.40
2019-06-15T11:12:00.703Z,1.60
2019-06-15T11:14:31.733Z,1.70
2019-06-15T11:17:03.579Z,1.50
2019-06-15T11:19:35.959Z,1.43
2019-06-15T11:22:06.999Z,1.47
2019-06-15T11:24:38.067Z,1.53
2019-06-15T11:27:09.167Z,1.50
2019-06-15T11:29:40.341Z,1.40
2019-06-15T11:32:11.579Z,1.70
2019-06-15T11:34:43.663Z,1.57
2019-06-15T11:37:14.733Z,1.67
2019-06-15T11:39:45.733Z,1.30
2019-06-15T11:42:16.771Z,1.50
2019-06-15T11:44:47.775Z,1.80
2019-06-15T11:47:18.895Z,1.30
2019-06-15T11:49:50.009Z,1.40
2019-06-15T11:52:22.312Z,1.60
2019-06-15T11:54:53.325Z,1.70
2019-06-15T11:57:24.373Z,1.87
2019-06-15T11:59:55.421Z,1.60
2019-06-15T12:02:27.509Z,1.33
2019-06-15T12:04:58.996Z,1.70
2019-06-15T12:07:30.277Z,1.70
2019-06-15T12:10:01.309Z,1.37
2019-06-15T12:12:32.359Z,1.60
2019-06-15T12:15:03.382Z,1.57
2019-06-15T12:17:34.557Z,1.63
2019-06-15T12:20:06.387Z,1.70
2019-06-15T12:22:37.402Z,1.40
2019-06-15T12:25:08.715Z,1.50
2019-06-15T12:27:40.839Z,1.70
2019-06-15T12:30:13.157Z,1.53
2019-06-15T12:32:44.206Z,1.50
2019-06-15T12:35:15.447Z,1.50
2019-06-15T12:37:46.483Z,1.73
2019-06-15T12:40:17.939Z,1.60
2019-06-15T12:42:48.993Z,1.57
2019-06-15T12:45:20.331Z,1.80
2019-06-15T12:47:51.444Z,1.60
2019-06-15T12:50:23.856Z,2.10
2019-06-15T12:52:54.896Z,1.73
2019-06-15T12:55:26.141Z,1.73
2019-06-15T12:57:57.196Z,1.50
2019-06-15T13:00:36.423Z,1.53
2019-06-15T13:03:07.521Z,1.63
2019-06-15T13:05:38.743Z,1.70
2019-06-15T13:08:09.887Z,2.10
2019-06-15T13:10:41.015Z,1.90
2019-06-15T13:13:12.079Z,1.80
2019-06-15T13:15:43.405Z,1.40
2019-06-15T13:18:14.443Z,1.60
2019-06-15T13:20:45.689Z,1.57
2019-06-15T13:23:16.877Z,1.50
2019-06-15T13:25:49.509Z,1.80
2019-06-15T13:28:21.155Z,1.70
2019-06-15T13:30:53.139Z,1.83
2019-06-15T13:33:24.732Z,1.90
2019-06-15T13:35:56.729Z,1.80
2019-06-15T13:38:27.825Z,1.70
2019-06-15T13:40:58.941Z,1.60
2019-06-15T13:43:30.048Z,1.60
2019-06-15T13:46:01.227Z,1.63
2019-06-15T13:48:33.662Z,1.93
2019-06-15T13:51:04.865Z,1.90
2019-06-15T13:53:35.985Z,2.00
2019-06-15T13:56:07.454Z,1.97
2019-06-15T13:58:38.514Z,1.83
2019-06-15T14:01:50.159Z,1.67
2019-06-15T14:04:21.213Z,1.70
2019-06-15T14:06:53.231Z,1.80
2019-06-15T14:09:24.346Z,1.80
2019-06-15T14:11:55.585Z,2.10
2019-06-15T14:14:26.663Z,2.00
2019-06-15T14:16:57.855Z,2.10
2019-06-15T14:19:28.991Z,1.70
2019-06-15T14:22:00.373Z,2.47
2019-06-15T14:24:31.444Z,2.07
2019-06-15T14:27:02.761Z,2.10
2019-06-15T14:29:33.872Z,1.90
2019-06-15T14:32:05.235Z,1.90
2019-06-15T14:34:36.273Z,1.80
2019-06-15T14:37:07.957Z,2.10
2019-06-15T14:39:58.041Z,1.70
2019-06-15T14:42:29.309Z,2.20
2019-06-15T14:45:00.367Z,1.57
2019-06-15T14:47:31.695Z,2.00
2019-06-15T14:50:02.829Z,1.60
2019-06-15T14:52:34.201Z,2.00
2019-06-15T14:55:07.284Z,2.07
2019-06-15T14:57:38.672Z,2.20
2019-06-15T15:00:10.241Z,2.37
2019-06-15T15:02:41.495Z,1.90
2019-06-15T15:05:14.776Z,2.43
2019-06-15T15:07:46.937Z,2.20
2019-06-15T15:10:18.530Z,1.93
2019-06-15T15:12:49.791Z,2.13
2019-06-15T15:15:20.943Z,2.43
2019-06-15T15:17:52.747Z,2.30
2019-06-15T15:20:26.283Z,2.40
2019-06-15T15:22:56.980Z,2.23
2019-06-15T15:25:31.010Z,2.40
2019-06-15T15:28:01.288Z,2.73
2019-06-15T15:30:39.867Z,2.13
2019-06-15T15:33:12.424Z,2.10
2019-06-15T15:35:43.508Z,2.10
2019-06-15T15:38:14.711Z,2.00
2019-06-15T15:40:46.785Z,2.47
2019-06-15T15:43:18.594Z,2.40
2019-06-15T15:45:49.643Z,2.20
2019-06-15T15:48:21.395Z,2.80
2019-06-15T15:51:06.464Z,2.53
2019-06-15T15:53:37.569Z,2.27
2019-06-15T15:56:08.778Z,2.20
2019-06-15T15:58:39.930Z,2.40
2019-06-15T16:01:10.956Z,3.37
2019-06-15T16:03:42.209Z,2.70
2019-06-15T16:06:13.249Z,3.10
2019-06-15T16:08:46.979Z,3.07
2019-06-15T16:11:17.918Z,2.60
2019-06-15T16:13:50.337Z,2.50
2019-06-15T16:16:21.355Z,2.27
2019-06-15T16:18:53.044Z,2.30
2019-06-15T16:21:26.085Z,2.70
2019-06-15T16:23:58.408Z,2.63
2019-06-15T16:26:29.609Z,2.67
2019-06-15T16:29:00.953Z,3.40
2019-06-15T16:31:32.017Z,2.50
2019-06-15T16:34:03.391Z,2.93
2019-06-15T16:36:36.517Z,3.03
2019-06-15T16:39:07.931Z,3.03
2019-06-15T16:41:40.574Z,3.13
2019-06-15T16:44:11.807Z,2.30
2019-06-15T16:46:42.799Z,2.60
2019-06-15T16:49:16.685Z,2.80
2019-06-15T16:51:46.786Z,2.93
2019-06-15T16:54:18.022Z,2.57
2019-06-15T16:56:49.073Z,2.60
2019-06-15T16:59:20.374Z,2.80
2019-06-15T17:01:51.398Z,3.17
2019-06-15T17:04:22.644Z,3.70
2019-06-15T17:06:56.186Z,3.83
2019-06-15T17:09:46.476Z,3.77
2019-06-15T17:12:17.667Z,3.90
2019-06-15T17:14:49.864Z,3.70
2019-06-15T17:17:20.920Z,3.60
2019-06-15T17:19:52.451Z,3.73
2019-06-15T17:22:23.484Z,5.30
2019-06-15T17:24:56.511Z,6.10
2019-06-15T17:27:27.861Z,4.20
2019-06-15T17:29:59.195Z,5.47
2019-06-15T17:32:30.265Z,4.80
2019-06-15T17:35:02.068Z,5.77
2019-06-15T17:37:36.215Z,5.20
2019-06-15T17:40:07.072Z,5.20
2019-06-15T17:42:39.210Z,5.00
2019-06-15T17:45:10.572Z,4.80
2019-06-15T17:47:41.634Z,5.50
2019-06-15T17:50:12.887Z,2.93
2019-06-15T17:52:46.646Z,3.30
2019-06-15T17:55:17.945Z,3.23
2019-06-15T17:57:49.204Z,2.47
2019-06-15T18:00:20.823Z,2.43
2019-06-15T18:03:03.921Z,2.60
2019-06-15T18:05:37.018Z,2.20
2019-06-15T18:08:07.845Z,2.03
2019-06-15T18:10:39.070Z,2.30
2019-06-15T18:13:10.096Z,2.20
2019-06-15T18:15:41.243Z,1.90
2019-06-15T18:18:12.359Z,1.80
2019-06-15T18:20:44.113Z,1.70
2019-06-15T18:23:17.320Z,2.20
2019-06-15T18:25:48.249Z,1.67
2019-06-15T18:28:19.314Z,1.80
2019-06-15T18:30:50.614Z,1.50
2019-06-15T18:33:21.693Z,1.50
2019-06-15T18:35:53.131Z,1.20
2019-06-15T18:38:26.066Z,1.80
2019-06-15T18:40:57.371Z,1.67
2019-06-15T18:43:28.424Z,2.00
2019-06-15T18:46:18.816Z,1.53
2019-06-15T18:48:49.901Z,1.47
2019-06-15T18:51:21.056Z,1.60
2019-06-15T18:53:52.163Z,1.77
2019-06-15T18:56:23.546Z,1.67
2019-06-15T18:58:56.300Z,1.50
2019-06-15T19:01:27.757Z,1.60
2019-06-15T19:03:58.869Z,1.60
2019-06-15T19:06:30.095Z,1.77
2019-06-15T19:09:01.133Z,1.50
2019-06-15T19:11:34.045Z,1.87
2019-06-15T19:14:06.862Z,1.73
2019-06-15T19:16:38.175Z,1.80
2019-06-15T19:19:09.923Z,1.30
2019-06-15T19:21:41.492Z,1.33
2019-06-15T19:24:12.499Z,1.37
2019-06-15T19:26:45.962Z,1.60
2019-06-15T19:29:17.193Z,1.50
2019-06-15T19:31:48.963Z,1.40
2019-06-15T19:34:20.020Z,1.57
2019-06-15T19:36:51.329Z,1.40
2019-06-15T19:39:22.354Z,1.40
2019-06-15T19:41:56.160Z,1.17
2019-06-15T19:44:26.858Z,1.57
2019-06-15T19:47:00.272Z,1.50
2019-06-15T19:49:31.015Z,1.80
2019-06-15T19:52:02.397Z,1.50
2019-06-15T19:54:33.494Z,1.70
2019-06-15T19:57:06.873Z,1.90
2019-06-15T19:59:37.550Z,1.40
2019-06-15T20:02:10.833Z,1.60
2019-06-15T20:05:00.411Z,1.67
2019-06-15T20:07:26.129Z,1.60
2019-06-15T20:09:57.237Z,1.73
2019-06-15T20:12:28.551Z,1.40
2019-06-15T20:14:59.579Z,1.40
2019-06-15T20:17:31.225Z,1.60
2019-06-15T20:20:02.292Z,1.50
2019-06-15T20:22:33.628Z,1.90
2019-06-15T20:25:06.582Z,1.40
2019-06-15T20:27:38.302Z,1.50
2019-06-15T20:30:10.593Z,1.43
2019-06-15T20:32:42.133Z,1.70
2019-06-15T20:35:18.717Z,1.80
2019-06-15T20:37:47.095Z,1.47
2019-06-15T20:40:19.591Z,1.77
2019-06-15T20:42:50.911Z,1.70
2019-06-15T20:45:22.491Z,1.40
2019-06-15T20:47:55.963Z,1.97
2019-06-15T20:50:28.485Z,1.57
2019-06-15T20:53:11.722Z,1.80
2019-06-15T20:55:42.975Z,1.40
2019-06-15T20:58:16.701Z,1.43
2019-06-15T21:00:47.878Z,1.30
2019-06-15T21:03:19.505Z,1.57
2019-06-15T21:05:50.581Z,1.77
2019-06-15T21:08:22.018Z,4.07
2019-06-15T21:10:53.220Z,2.80
2019-06-15T21:13:26.435Z,1.50
2019-06-15T21:15:58.394Z,1.80
2019-06-15T21:18:29.676Z,1.90
2019-06-15T21:21:00.778Z,1.73
2019-06-15T21:23:32.336Z,2.30
2019-06-15T21:26:22.466Z,2.00
2019-06-15T21:28:53.797Z,2.20
2019-06-15T21:31:26.181Z,2.30
2019-06-15T21:34:17.092Z,1.90
2019-06-15T21:36:48.479Z,1.90
2019-06-15T21:39:20.291Z,1.97
2019-06-15T21:41:51.799Z,1.93
2019-06-15T21:44:23.500Z,1.50
2019-06-15T21:46:56.314Z,1.80
2019-06-15T21:49:27.842Z,1.50
2019-06-15T21:51:58.877Z,1.70
2019-06-15T21:54:30.238Z,1.50
2019-06-15T21:57:01.280Z,1.67
2019-06-15T21:59:32.524Z,1.50
2019-06-15T22:02:03.555Z,1.67
2019-06-15T22:04:36.859Z,2.00
2019-06-15T22:07:08.199Z,2.20
2019-06-15T22:09:40.343Z,2.00
2019-06-15T22:12:11.833Z,1.47
2019-06-15T22:14:43.282Z,1.83
2019-06-15T22:17:16.747Z,2.07
2019-06-15T22:19:47.515Z,2.20
2019-06-15T22:22:18.602Z,2.20
2019-06-15T22:25:02.264Z,2.23
2019-06-15T22:27:36.023Z,1.80
2019-06-15T22:30:07.532Z,1.83
2019-06-15T22:32:38.870Z,1.93
2019-06-15T22:35:11.003Z,2.13
2019-06-15T22:37:42.190Z,1.97
2019-06-15T22:40:16.525Z,2.23
2019-06-15T22:42:47.205Z,1.80
2019-06-15T22:45:18.723Z,1.87
2019-06-15T22:47:49.876Z,1.83
2019-06-15T22:50:21.319Z,1.60
2019-06-15T22:52:52.439Z,2.30
2019-06-15T22:55:26.129Z,2.10
2019-06-15T22:57:57.337Z,2.00
2019-06-15T23:00:28.667Z,2.13
2019-06-15T23:02:59.819Z,1.90
2019-06-15T23:05:50.517Z,1.77
2019-06-15T23:08:23.288Z,1.80
2019-06-15T23:10:57.515Z,2.30
2019-06-15T23:13:28.578Z,2.30
2019-06-15T23:16:00.039Z,2.40
2019-06-15T23:18:31.202Z,2.33
2019-06-15T23:21:17.077Z,3.00
2019-06-15T23:23:50.130Z,2.80
2019-06-15T23:26:24.157Z,2.43
2019-06-15T23:29:00.663Z,2.93
2019-06-15T23:31:36.917Z,3.40
2019-06-15T23:34:12.423Z,3.33
2019-06-15T23:36:56.335Z,3.10
2019-06-15T23:39:27.027Z,3.00
2019-06-15T23:41:58.442Z,2.83
2019-06-15T23:44:29.570Z,3.03
2019-06-15T23:47:01.999Z,3.40
2019-06-15T23:49:33.585Z,3.73
2019-06-15T23:52:06.786Z,3.93
2019-06-15T23:54:37.912Z,4.00
2019-06-15T23:57:09.341Z,5.00
2019-06-15T23:59:40.490Z,4.47
